Time;durP1;ratioP1;P1;durP2;ratioP2;P2;SDS_P1;SDS_P2;PMS_P1;PMS_P2;Temp;Humidity;BMP_temperature;BMP_pressure;BME280_temperature;BME280_humidity;BME280_pressure;Samples;Min_cycle;Max_cycle;Signal;HPM_P1;HPM_P2
2022/03/20 00:02:24;;;;;;;;;3.25;3.25;;;;;13.02;27.84;102320.16;5056066;28;46017;-72
2022/03/20 00:04:50;;;;;;;;;5.00;4.00;;;;;13.05;27.56;102328.16;5055710;28;45347;-71
2022/03/20 00:07:15;;;;;;;;;3.75;3.75;;;;;13.01;27.44;102326.50;5055732;28;45326;-72
2022/03/20 00:09:41;;;;;;;;;2.50;2.25;;;;;12.98;27.53;102323.91;5055409;28;45535;-71
2022/03/20 00:12:07;;;;;;;;;4.75;4.75;;;;;12.97;27.00;102314.06;5056069;28;46082;-72
2022/03/20 00:14:32;;;;;;;;;5.75;3.75;;;;;12.96;27.66;102323.06;5055383;28;45337;-72
2022/03/20 00:16:58;;;;;;;;;4.00;4.00;;;;;12.82;27.70;102301.94;5055698;28;45770;-72
2022/03/20 00:19:23;;;;;;;;;3.75;3.25;;;;;12.86;27.25;102308.97;5055268;28;45357;-72
2022/03/20 00:21:49;;;;;;;;;4.75;3.75;;;;;12.85;27.56;102307.22;5055545;28;45835;-72
2022/03/20 00:24:15;;;;;;;;;4.50;3.50;;;;;12.88;27.36;102323.28;5033988;28;45289;-72
2022/03/20 00:26:41;;;;;;;;;3.00;3.00;;;;;12.84;27.59;102312.69;5048237;28;45465;-72
2022/03/20 00:29:07;;;;;;;;;2.50;2.50;;;;;12.82;27.42;102312.72;5055838;28;45300;-71
2022/03/20 05:32:56;;;;;;;;;11.50;10.25;;;;;9.80;40.42;102168.13;5046579;27;45464;-71
2022/03/20 05:35:22;;;;;;;;;10.25;9.00;;;;;9.81;40.41;102171.69;5054392;28;45350;-71
2022/03/20 05:37:48;;;;;;;;;7.50;7.00;;;;;9.80;40.51;102169.94;5054646;28;45509;-72
2022/03/20 05:40:15;;;;;;;;;5.50;4.00;;;;;9.81;40.69;102169.91;5054354;28;45333;-71
2022/03/20 05:42:41;;;;;;;;;7.75;5.75;;;;;9.81;40.43;102172.56;5037456;28;45423;-71
2022/03/20 05:45:10;;;;;;;;;8.25;8.25;;;;;9.74;40.56;102153.97;5053797;28;45358;-72
2022/03/20 05:47:37;;;;;;;;;8.50;6.00;;;;;9.76;40.74;102154.84;5054353;28;45308;-71
2022/03/20 05:50:05;;;;;;;;;7.00;7.00;;;;;9.70;40.34;102144.22;5054256;28;45384;-70
2022/03/20 05:52:30;;;;;;;;;6.00;6.00;;;;;9.68;40.46;102146.09;5054551;28;45343;-71
2022/03/20 05:54:56;;;;;;;;;8.75;8.00;;;;;9.70;41.11;102154.94;5034932;28;45380;-71
2022/03/20 06:00:06;;;;;;;;;8.25;6.00;;;;;9.61;40.97;102150.66;5054077;28;45443;-70
2022/03/20 06:02:31;;;;;;;;;6.75;6.75;;;;;9.56;41.02;102147.19;5054432;28;45499;-72
2022/03/20 06:04:57;;;;;;;;;8.00;7.50;;;;;9.54;40.67;102145.44;5054253;28;45342;-71
2022/03/20 06:07:22;;;;;;;;;11.25;9.25;;;;;9.53;41.11;102149.06;5054057;28;46216;-71
2022/03/20 06:09:47;;;;;;;;;18.00;10.25;;;;;9.56;41.29;102163.25;5053946;28;45331;-71
2022/03/20 06:12:13;;;;;;;;;8.00;8.00;;;;;9.47;41.20;102150.03;5054061;28;45223;-73
2022/03/20 06:14:38;;;;;;;;;14.75;10.50;;;;;9.54;41.57;102164.19;5053534;28;45554;-72
2022/03/20 06:17:05;;;;;;;;;13.00;10.25;;;;;9.47;41.58;102158.97;5053725;28;45436;-73
2022/03/20 06:19:31;;;;;;;;;9.00;8.00;;;;;9.53;41.35;102182.03;5053754;28;45245;-71
2022/03/20 06:21:56;;;;;;;;;13.50;9.00;;;;;9.54;41.28;102173.09;5054205;28;45460;-72
2022/03/20 06:24:22;;;;;;;;;12.25;9.75;;;;;9.54;41.16;102167.75;5035542;28;47131;-73
2022/03/20 06:26:47;;;;;;;;;17.75;13.75;;;;;9.56;41.53;102183.78;5053689;28;45406;-71
2022/03/20 06:29:13;;;;;;;;;17.75;9.00;;;;;9.52;41.97;102171.38;5053393;28;45441;-72
2022/03/20 06:31:38;;;;;;;;;9.25;9.25;;;;;9.56;41.23;102182.00;5032046;28;45308;-71
2022/03/20 06:34:04;;;;;;;;;10.75;10.75;;;;;9.55;41.68;102174.00;5051292;28;45383;-71
2022/03/20 06:36:30;;;;;;;;;12.00;11.25;;;;;9.57;41.69;102181.09;5053922;28;45350;-72
2022/03/20 06:38:56;;;;;;;;;11.75;9.00;;;;;9.44;41.29;102167.03;5053852;28;45548;-71
2022/03/20 06:41:21;;;;;;;;;14.75;9.75;;;;;9.56;41.70;102182.00;5057346;28;45496;-70
2022/03/20 06:43:47;;;;;;;;;12.25;10.25;;;;;9.56;42.07;102191.81;5057362;28;45388;-72
2022/03/20 06:46:12;;;;;;;;;9.50;8.50;;;;;9.52;41.95;102176.75;5056905;28;45882;-73
2022/03/20 06:48:38;;;;;;;;;10.50;10.00;;;;;9.55;41.89;102185.59;5057140;28;45442;-71
2022/03/20 06:51:04;;;;;;;;;14.25;11.00;;;;;9.57;41.71;102189.13;5057232;28;45567;-72
2022/03/20 06:53:30;;;;;;;;;12.50;9.00;;;;;9.48;42.46;102173.22;5057000;28;45156;-72
2022/03/20 06:55:55;;;;;;;;;13.75;13.75;;;;;9.59;41.77;102189.97;5057315;28;45350;-71
2022/03/20 06:58:22;;;;;;;;;16.50;13.00;;;;;9.64;41.57;102198.81;5056975;28;45241;-72
2022/03/20 07:00:48;;;;;;;;;13.00;11.25;;;;;9.59;42.13;102187.31;5056910;28;45443;-72
2022/03/20 07:03:15;;;;;;;;;13.00;12.75;;;;;9.58;41.80;102196.25;5056364;28;45374;-72
2022/03/20 07:05:41;;;;;;;;;14.50;13.25;;;;;9.66;41.58;102204.13;5056797;28;46042;-71
2022/03/20 07:08:07;;;;;;;;;14.25;13.00;;;;;9.69;42.37;102204.09;5056529;28;45358;-72
2022/03/20 07:10:33;;;;;;;;;12.25;11.25;;;;;9.71;41.83;102204.91;5056629;28;45333;-72
2022/03/20 07:15:45;;;;;;;;;13.25;10.75;;;;;9.75;41.42;102217.34;5056051;28;45699;-76
2022/03/20 07:18:16;;;;;;;;;9.25;8.00;;;;;9.72;41.71;102220.97;5056400;28;45315;-71
2022/03/20 07:20:44;;;;;;;;;15.00;13.75;;;;;9.70;41.85;102211.19;5057075;28;45371;-70
2022/03/20 07:23:10;;;;;;;;;14.75;10.50;;;;;9.65;41.97;102199.69;5056559;28;45318;-72
2022/03/20 07:31:04;;;;;;;;;15.25;14.00;;;;;9.75;41.48;102209.31;5056103;28;45410;-70
2022/03/20 07:33:30;;;;;;;;;18.00;14.00;;;;;9.69;41.59;102202.28;5056269;28;45344;-69
2022/03/20 07:35:55;;;;;;;;;17.25;14.00;;;;;9.73;41.91;102205.78;5056168;28;46136;-70
2022/03/20 07:38:21;;;;;;;;;10.25;9.50;;;;;9.75;41.88;102220.03;5056377;28;45341;-71
2022/03/20 07:40:46;;;;;;;;;21.75;18.50;;;;;9.75;41.56;102214.66;5056259;28;45352;-70
2022/03/20 07:43:11;;;;;;;;;14.50;13.50;;;;;9.73;42.05;102217.38;5056045;28;45537;-68
2022/03/20 07:45:37;;;;;;;;;23.00;16.00;;;;;9.69;41.71;102210.31;5055839;28;46081;-68
2022/03/20 07:48:02;;;;;;;;;18.50;16.25;;;;;9.78;41.93;102218.16;5055946;28;45310;-67
2022/03/20 07:50:28;;;;;;;;;23.00;18.25;;;;;9.78;42.24;102219.97;5055701;28;45492;-68
2022/03/20 07:52:56;;;;;;;;;24.50;18.50;;;;;9.81;42.03;102219.91;5036952;28;45395;-71
2022/03/20 07:55:23;;;;;;;;;20.75;16.75;;;;;9.83;41.13;102221.66;5054867;28;45457;-70
2022/03/20 07:57:48;;;;;;;;;17.50;16.75;;;;;9.90;41.53;102225.09;5055141;28;45493;-70
2022/03/20 08:00:14;;;;;;;;;19.50;17.00;;;;;9.85;41.77;102211.78;5054849;28;45497;-68
2022/03/20 08:02:39;;;;;;;;;21.00;16.75;;;;;9.88;41.50;102209.03;5055740;28;45586;-68
2022/03/20 08:05:05;;;;;;;;;22.50;22.50;;;;;9.95;41.31;102214.28;5055825;28;45280;-69
2022/03/20 08:07:40;;;;;;;;;19.50;16.50;;;;;9.92;41.58;102209.88;5037569;28;46061;-69
2022/03/20 08:10:10;;;;;;;;;28.00;19.25;;;;;9.93;42.06;102210.75;5055781;28;45234;-70
2022/03/20 08:12:36;;;;;;;;;23.50;18.25;;;;;9.93;41.29;102210.75;5055793;28;45489;-68
2022/03/20 08:15:03;;;;;;;;;25.75;20.25;;;;;9.95;41.79;102215.19;5055684;28;45483;-70
2022/03/20 08:17:29;;;;;;;;;25.00;21.00;;;;;9.97;41.74;102218.69;5054953;28;45352;-69
2022/03/20 08:19:56;;;;;;;;;24.25;19.75;;;;;10.00;41.69;102217.75;5056594;28;45318;-69
2022/03/20 08:22:22;;;;;;;;;22.00;19.00;;;;;10.02;41.90;102214.13;5055498;28;45485;-68
2022/03/20 08:24:48;;;;;;;;;21.00;17.00;;;;;9.99;41.97;102206.16;5055691;28;46154;-69
2022/03/20 08:27:14;;;;;;;;;18.00;16.00;;;;;10.02;42.28;102206.09;5055414;28;45423;-70
2022/03/20 08:29:40;;;;;;;;;21.25;17.75;;;;;10.10;41.76;102208.63;5055567;28;45318;-68
2022/03/20 08:32:07;;;;;;;;;22.00;20.75;;;;;10.12;41.52;102202.28;5055291;28;45449;-70
2022/03/20 08:34:32;;;;;;;;;23.50;21.00;;;;;10.19;41.41;102219.19;5054839;28;45327;-69
2022/03/20 08:36:58;;;;;;;;;28.00;22.00;;;;;10.24;41.40;102210.13;5055358;28;45356;-68
2022/03/20 08:39:23;;;;;;;;;28.75;23.75;;;;;10.27;41.50;102210.97;5033931;28;45580;-70
2022/03/20 08:41:49;;;;;;;;;26.50;24.00;;;;;10.32;41.40;102211.75;5049300;28;45447;-70
2022/03/20 08:44:14;;;;;;;;;26.50;21.25;;;;;10.39;41.50;102213.38;5054603;28;45431;-69
2022/03/20 08:46:40;;;;;;;;;23.00;20.50;;;;;10.42;40.73;102218.69;5052806;28;45406;-67
2022/03/20 08:49:07;;;;;;;;;29.00;21.25;;;;;10.42;41.07;102210.66;5041174;28;47066;-72
2022/03/20 08:51:34;;;;;;;;;25.25;21.00;;;;;10.50;40.96;102220.28;5054058;28;45547;-70
2022/03/20 08:54:03;;;;;;;;;35.50;26.00;;;;;10.54;40.94;102218.44;5038028;28;45472;-68
2022/03/20 08:56:29;;;;;;;;;33.25;26.25;;;;;10.48;40.78;102214.06;5040056;28;45570;-69
2022/03/20 08:58:56;;;;;;;;;29.50;22.00;;;;;10.59;40.50;102219.19;5057674;28;45302;-71
2022/03/20 09:01:21;;;;;;;;;30.25;26.25;;;;;10.69;40.71;102230.59;5054121;28;45496;-79
2022/03/20 09:03:50;;;;;;;;;35.50;24.75;;;;;10.70;40.72;102222.53;5035609;28;48680;-71
2022/03/20 09:06:19;;;;;;;;;33.75;24.25;;;;;10.79;41.31;102226.81;5054202;28;45303;-74
2022/03/20 09:08:46;;;;;;;;;26.00;23.00;;;;;10.87;40.94;102232.88;5053928;28;45390;-73
2022/03/20 09:11:12;;;;;;;;;25.00;22.50;;;;;10.93;40.48;102232.72;5052229;28;45432;-72
2022/03/20 09:13:37;;;;;;;;;30.50;26.75;;;;;10.98;40.36;102228.09;5053542;28;45503;-74
2022/03/20 09:18:59;;;;;;;;;33.50;27.00;;;;;11.11;40.46;102240.34;5052181;28;45373;-69
2022/03/20 09:21:29;;;;;;;;;38.25;29.75;;;;;11.10;40.04;102222.47;5053968;28;45714;-70
2022/03/20 09:23:55;;;;;;;;;27.25;26.00;;;;;11.22;40.26;102243.66;5054664;28;46359;-75
2022/03/20 09:26:21;;;;;;;;;39.75;30.00;;;;;11.27;39.42;102240.84;5053364;28;45467;-74
2022/03/20 09:28:47;;;;;;;;;31.00;29.50;;;;;11.26;39.47;102222.97;5054282;28;45460;-72
2022/03/20 09:31:13;;;;;;;;;33.00;29.75;;;;;11.37;39.75;102237.00;5054209;28;45538;-71
2022/03/20 09:33:40;;;;;;;;;32.25;29.75;;;;;11.42;39.23;102243.13;5054169;28;45928;-73
2022/03/20 09:36:06;;;;;;;;;30.75;28.00;;;;;11.31;39.63;102210.31;5054549;28;45410;-75
2022/03/20 09:38:32;;;;;;;;;35.75;30.25;;;;;11.52;39.75;102233.03;5054366;28;45418;-71
2022/03/20 09:41:03;;;;;;;;;34.75;28.75;;;;;11.55;39.34;102231.16;5054744;28;45355;-71
2022/03/20 09:43:31;;;;;;;;;34.00;28.50;;;;;11.59;39.32;102231.94;5055176;28;45375;-73
2022/03/20 09:45:57;;;;;;;;;30.00;28.00;;;;;11.60;39.35;102231.03;5053983;28;45325;-72
2022/03/20 09:48:23;;;;;;;;;36.75;34.00;;;;;11.67;38.57;102233.50;5053835;28;45318;-71
2022/03/20 09:50:49;;;;;;;;;27.25;26.00;;;;;11.67;38.83;102227.25;5054096;28;45516;-71
2022/03/20 09:53:15;;;;;;;;;30.50;27.00;;;;;11.73;38.23;102232.47;5053985;28;45859;-70
2022/03/20 09:55:40;;;;;;;;;27.50;26.50;;;;;11.75;38.10;102222.59;5053484;28;45447;-71
2022/03/20 09:58:05;;;;;;;;;29.00;27.50;;;;;11.74;37.29;102226.16;5050579;28;45841;-71
2022/03/20 10:00:32;;;;;;;;;28.75;27.50;;;;;11.75;38.29;102225.28;5052965;28;45441;-70
2022/03/20 10:02:57;;;;;;;;;35.50;25.50;;;;;11.78;38.10;102224.31;5053674;28;45457;-70
2022/03/20 10:05:26;;;;;;;;;31.50;26.75;;;;;11.81;37.85;102227.81;5052831;28;45597;-70
2022/03/20 10:07:51;;;;;;;;;28.00;25.00;;;;;11.83;37.92;102230.44;5053793;28;45330;-71
2022/03/20 10:10:19;;;;;;;;;29.25;28.00;;;;;11.79;38.14;102218.03;5053528;28;45444;-70
2022/03/20 10:12:53;;;;;;;;;27.25;27.25;;;;;11.91;38.17;102233.81;5053318;28;47233;-71
2022/03/20 10:15:39;;;;;;;;;29.50;26.75;;;;;11.92;38.45;102222.13;5055682;28;45434;-71
2022/03/20 10:18:20;;;;;;;;;29.25;25.25;;;;;11.98;36.90;102220.16;5057252;28;45450;-70
2022/03/20 10:20:59;;;;;;;;;28.25;24.00;;;;;12.08;36.83;102231.50;5069975;28;45508;-71
2022/03/20 10:23:41;;;;;;;;;29.00;21.00;;;;;12.09;36.12;102230.59;5056602;28;45501;-71
2022/03/20 10:26:16;;;;;;;;;30.25;27.50;;;;;12.12;36.94;102233.19;5056683;28;45447;-70
2022/03/20 10:28:46;;;;;;;;;24.00;22.50;;;;;12.17;36.25;102228.56;5056821;28;45808;-72
2022/03/20 10:31:23;;;;;;;;;24.25;22.75;;;;;12.22;35.67;102233.81;5056201;28;45779;-70
2022/03/20 10:34:06;;;;;;;;;23.25;19.25;;;;;12.25;35.56;102231.06;5056854;28;45527;-71
2022/03/20 10:36:36;;;;;;;;;24.25;21.50;;;;;12.27;35.23;102224.69;5057008;28;45459;-69
2022/03/20 10:39:08;;;;;;;;;31.25;26.50;;;;;12.30;35.13;102238.06;5039147;28;45628;-71
2022/03/20 10:41:34;;;;;;;;;22.75;19.00;;;;;12.31;34.46;102230.88;5056638;28;45457;-71
2022/03/20 10:44:02;;;;;;;;;24.50;22.25;;;;;12.30;34.19;102229.97;5056521;28;45473;-70
2022/03/20 10:46:27;;;;;;;;;27.50;20.75;;;;;12.38;33.71;102241.41;5055398;28;45413;-70
2022/03/20 10:48:58;;;;;;;;;19.50;18.25;;;;;12.43;33.50;102234.06;5055636;28;45409;-70
2022/03/20 10:51:39;;;;;;;;;25.75;22.25;;;;;12.48;33.12;102229.44;5056519;28;46635;-70
2022/03/20 10:54:13;;;;;;;;;20.50;16.75;;;;;12.52;33.33;102228.41;5056453;28;45602;-70
2022/03/20 10:56:58;;;;;;;;;17.75;14.00;;;;;12.58;33.73;102221.09;5056310;28;45300;-72
2022/03/20 10:59:27;;;;;;;;;21.50;18.25;;;;;12.65;33.71;102226.22;5056242;28;45426;-71
2022/03/20 11:01:53;;;;;;;;;20.00;17.50;;;;;12.64;32.87;102208.31;5055477;28;45355;-71
2022/03/20 11:04:19;;;;;;;;;26.25;21.00;;;;;12.80;33.28;102215.00;5055291;28;45413;-71
2022/03/20 11:06:50;;;;;;;;;17.25;15.50;;;;;12.94;32.14;102219.03;5055146;28;45442;-71
2022/03/20 11:09:16;;;;;;;;;13.00;11.00;;;;;12.96;31.04;102211.78;5055558;28;45496;-73
2022/03/20 11:11:48;;;;;;;;;16.50;13.50;;;;;12.99;29.75;102201.81;5055762;28;45504;-71
2022/03/20 11:14:15;;;;;;;;;17.50;15.50;;;;;13.09;30.09;102208.69;5050773;28;46474;-71
2022/03/20 11:16:42;;;;;;;;;19.50;16.25;;;;;13.20;31.29;102201.13;5054772;28;45508;-72
2022/03/20 11:19:13;;;;;;;;;15.75;15.50;;;;;13.40;30.42;102210.34;5055640;28;45889;-72
2022/03/20 11:21:43;;;;;;;;;16.50;15.00;;;;;13.56;29.19;102211.59;5054992;28;46007;-70
2022/03/20 11:24:10;;;;;;;;;14.25;13.00;;;;;13.75;29.04;102209.13;5055587;28;45471;-73
2022/03/20 11:26:39;;;;;;;;;15.00;14.00;;;;;13.92;28.75;102204.00;5054698;28;45343;-75
2022/03/20 11:29:07;;;;;;;;;18.50;17.25;;;;;14.19;29.14;102208.38;5055377;28;45419;-74
2022/03/20 11:31:37;;;;;;;;;19.00;15.75;;;;;14.46;28.85;102205.59;5056641;28;45432;-73
2022/03/20 11:34:06;;;;;;;;;16.75;14.50;;;;;14.69;28.99;102209.16;5055660;28;47297;-75
2022/03/20 11:36:52;;;;;;;;;19.75;16.75;;;;;14.99;29.34;102206.16;5056025;28;45365;-75
2022/03/20 11:39:18;;;;;;;;;17.50;15.75;;;;;15.29;26.28;102196.78;5036527;28;45906;-75
2022/03/20 11:41:43;;;;;;;;;11.00;11.00;;;;;15.61;27.68;102200.81;5053914;28;45464;-75
2022/03/20 11:44:20;;;;;;;;;15.75;15.25;;;;;16.00;26.46;102200.88;5053754;28;46293;-76
2022/03/20 11:46:46;;;;;;;;;15.50;15.50;;;;;16.45;26.02;102207.81;5054312;28;45372;-74
2022/03/20 11:49:17;;;;;;;;;17.25;13.25;;;;;16.85;25.65;102196.84;5054432;28;45487;-73
2022/03/20 11:52:03;;;;;;;;;17.75;17.00;;;;;17.28;24.68;102198.31;5057910;28;45387;-74
2022/03/20 11:54:53;;;;;;;;;20.50;16.50;;;;;17.66;24.63;102204.50;5053963;28;45725;-76
2022/03/20 11:57:28;;;;;;;;;17.75;15.00;;;;;18.02;24.53;102198.09;5038193;28;45359;-76
2022/03/20 11:59:55;;;;;;;;;8.25;8.25;;;;;18.31;23.84;102193.78;5054682;28;45611;-75
2022/03/20 12:02:45;;;;;;;;;16.25;14.75;;;;;18.56;23.76;102187.84;5054405;28;45397;-77
2022/03/20 12:05:35;;;;;;;;;20.00;17.50;;;;;18.99;23.66;102181.75;5041803;28;45359;-72
2022/03/20 12:08:38;;;;;;;;;16.50;14.75;;;;;19.47;22.75;102188.00;5055534;28;45409;-74
2022/03/20 12:11:37;;;;;;;;;18.75;17.50;;;;;19.82;22.18;102177.72;5054980;28;45406;-74
2022/03/20 12:14:38;;;;;;;;;22.75;17.75;;;;;20.28;21.43;102178.41;5053800;28;45325;-73
2022/03/20 12:17:04;;;;;;;;;19.75;15.25;;;;;20.98;21.73;102165.66;5023584;28;46275;-73
2022/03/20 12:19:55;;;;;;;;;15.50;15.50;;;;;21.77;20.51;102146.56;5051304;28;45597;-72
2022/03/20 12:22:21;;;;;;;;;16.00;16.00;;;;;22.64;19.54;102155.66;5054782;28;45310;-72
2022/03/20 12:24:53;;;;;;;;;18.25;14.00;;;;;23.28;18.61;102156.31;5054256;28;45314;-73
2022/03/20 12:27:18;;;;;;;;;20.25;19.75;;;;;23.94;18.06;102152.03;5054235;28;46273;-73
2022/03/20 12:29:44;;;;;;;;;18.25;14.50;;;;;24.55;18.15;102147.09;5053809;28;45422;-77
2022/03/20 12:32:14;;;;;;;;;17.75;17.25;;;;;25.24;17.12;102147.69;5053813;28;45443;-74
2022/03/20 12:34:41;;;;;;;;;17.75;16.50;;;;;25.87;17.02;102145.84;5054019;28;47332;-75
2022/03/20 12:37:32;;;;;;;;;20.25;15.00;;;;;26.69;15.62;102138.44;5053820;28;46005;-73
2022/03/20 12:40:10;;;;;;;;;19.75;19.00;;;;;27.59;15.63;102141.00;5053406;28;45326;-74
2022/03/20 12:42:39;;;;;;;;;19.25;18.50;;;;;28.10;14.81;102140.56;5053274;28;45437;-77
2022/03/20 12:45:08;;;;;;;;;20.50;14.75;;;;;28.26;14.51;102139.97;5053206;28;45449;-75
2022/03/20 12:47:34;;;;;;;;;18.25;15.50;;;;;28.46;14.64;102141.63;5053476;28;46985;-76
2022/03/20 12:50:07;;;;;;;;;15.75;15.75;;;;;28.11;14.83;102139.56;5052580;28;45437;-74
2022/03/20 12:52:34;;;;;;;;;20.00;18.00;;;;;28.22;15.09;102129.25;5049262;28;45449;-68
2022/03/20 12:55:02;;;;;;;;;19.75;16.50;;;;;28.34;14.96;102127.16;5051906;28;45957;-76
2022/03/20 12:57:40;;;;;;;;;18.25;17.50;;;;;28.43;14.73;102120.72;5053443;28;46003;-72
2022/03/20 13:00:07;;;;;;;;;17.50;15.50;;;;;28.61;14.65;102110.59;5052695;28;45500;-73
2022/03/20 13:02:34;;;;;;;;;18.00;17.00;;;;;28.90;13.98;102110.44;5053634;28;45386;-76
2022/03/20 13:05:09;;;;;;;;;20.25;16.50;;;;;28.41;14.00;102108.97;5053248;28;45323;-75
2022/03/20 13:07:35;;;;;;;;;16.75;13.75;;;;;28.45;14.69;102088.34;5053113;28;45448;-74
2022/03/20 13:10:00;;;;;;;;;15.00;14.00;;;;;28.74;13.71;102104.72;5053087;28;45506;-74
2022/03/20 13:12:26;;;;;;;;;17.00;15.50;;;;;28.78;13.33;102113.56;5052886;28;46066;-72
2022/03/20 13:14:55;;;;;;;;;16.50;13.50;;;;;28.78;13.20;102110.81;5051951;28;45400;-73
2022/03/20 13:17:27;;;;;;;;;16.25;13.75;;;;;29.07;12.61;102113.38;5052817;28;45322;-73
2022/03/20 13:19:52;;;;;;;;;14.25;13.00;;;;;29.23;12.50;102096.94;5052583;28;45410;-73
2022/03/20 13:22:18;;;;;;;;;16.25;15.00;;;;;29.44;12.05;102110.44;5052826;28;45829;-74
2022/03/20 13:24:46;;;;;;;;;13.50;11.75;;;;;29.68;11.79;102106.00;5034442;28;45450;-71
2022/03/20 13:27:13;;;;;;;;;14.50;12.00;;;;;29.79;12.36;102110.38;5052558;28;46220;-72
2022/03/20 13:29:42;;;;;;;;;15.25;14.25;;;;;29.92;12.05;102105.28;5052372;28;45418;-73
2022/03/20 13:32:12;;;;;;;;;15.75;12.50;;;;;29.52;10.73;102093.94;5052872;28;45518;-74
2022/03/20 13:34:45;;;;;;;;;12.25;11.00;;;;;29.68;11.90;102108.75;5034520;28;45518;-74
2022/03/20 13:37:12;;;;;;;;;10.75;10.75;;;;;29.71;11.73;102090.97;5052715;28;45696;-75
2022/03/20 13:39:45;;;;;;;;;11.25;8.75;;;;;29.90;11.45;102093.50;5052306;28;45447;-75
2022/03/20 13:42:16;;;;;;;;;9.50;8.75;;;;;29.94;11.70;102107.91;5052015;28;45364;-76
2022/03/20 13:44:42;;;;;;;;;10.50;10.50;;;;;29.46;11.48;102097.34;5052421;28;45468;-75
2022/03/20 13:47:08;;;;;;;;;11.50;11.00;;;;;28.57;11.44;102100.03;5052567;28;45468;-74
2022/03/20 13:49:33;;;;;;;;;14.00;11.75;;;;;27.73;12.41;102107.50;5044284;28;45389;-76
2022/03/20 13:51:59;;;;;;;;;13.50;9.25;;;;;27.23;13.03;102088.38;5053186;28;45421;-75
2022/03/20 13:54:25;;;;;;;;;9.00;9.00;;;;;26.99;13.21;102093.44;5052349;28;45574;-78
2022/03/20 13:57:11;;;;;;;;;11.25;11.00;;;;;26.70;13.64;102097.03;5053081;28;45428;-75
2022/03/20 14:00:08;;;;;;;;;11.75;11.75;;;;;26.56;13.61;102099.28;5052854;28;45668;-75
2022/03/20 14:02:58;;;;;;;;;17.75;15.00;;;;;26.36;14.38;102102.00;5052319;28;45347;-75
2022/03/20 14:05:27;;;;;;;;;12.75;12.75;;;;;26.30;14.34;102091.53;5052404;28;45456;-77
2022/03/20 14:08:09;;;;;;;;;11.75;11.50;;;;;26.24;15.03;102097.56;5052555;28;46494;-78
2022/03/20 14:10:54;;;;;;;;;13.75;12.75;;;;;26.23;14.62;102094.97;5052509;28;45401;-75
2022/03/20 14:13:23;;;;;;;;;16.75;13.75;;;;;26.17;14.37;102096.41;5031484;28;45406;-75
2022/03/20 14:16:14;;;;;;;;;13.25;10.50;;;;;25.90;14.40;102101.63;5034452;28;46270;-71
2022/03/20 14:18:49;;;;;;;;;18.75;15.25;;;;;25.50;14.33;102096.00;5026949;28;47181;-72
2022/03/20 14:21:20;;;;;;;;;13.75;7.00;;;;;25.16;15.17;102087.09;5052434;28;45375;-73
2022/03/20 14:24:06;;;;;;;;;12.50;12.50;;;;;25.07;15.67;102094.22;5033746;28;45395;-73
2022/03/20 14:26:45;;;;;;;;;13.67;12.00;;;;;25.22;15.36;102086.53;5044165;28;45847;-74
2022/03/20 14:40:48;;;;;;;;;13.75;10.50;;;;;25.13;15.46;102060.75;5051724;28;45601;-73
2022/03/20 14:43:14;;;;;;;;;17.00;12.75;;;;;25.19;15.46;102057.47;5051996;28;45543;-73
2022/03/20 14:45:40;;;;;;;;;16.00;13.75;;;;;25.38;15.43;102086.06;5051543;28;45386;-74
2022/03/20 14:48:11;;;;;;;;;14.25;12.75;;;;;25.27;15.53;102073.28;5051671;28;45340;-73
2022/03/20 14:50:38;;;;;;;;;12.50;10.50;;;;;25.23;15.18;102067.19;5051108;28;45517;-73
2022/03/20 14:53:05;;;;;;;;;15.00;13.00;;;;;25.35;15.78;102080.88;5050595;28;45728;-74
2022/03/20 14:55:31;;;;;;;;;11.75;10.50;;;;;25.33;15.91;102080.13;5051308;28;45349;-77
2022/03/20 14:57:57;;;;;;;;;18.25;18.00;;;;;25.46;15.81;102080.78;5051499;28;45878;-74
2022/03/20 15:00:24;;;;;;;;;18.75;15.50;;;;;25.72;15.46;102084.88;5051949;28;46883;-74
2022/03/20 15:02:49;;;;;;;;;7.00;5.00;;;;;26.16;14.59;102077.28;5035443;28;45380;-75
2022/03/20 15:05:14;;;;;;;;;12.75;12.75;;;;;26.68;14.90;102081.66;5051365;28;45433;-73
2022/03/20 15:11:23;;;;;;;;;14.75;12.00;;;;;27.13;14.66;102084.78;5048838;28;45555;-72
2022/03/20 15:13:10;;;;;;;;;16.25;13.75;;;;;27.96;13.61;102073.03;5055437;28;45233;-73
2022/03/20 15:15:36;;;;;;;;;17.50;15.25;;;;;28.14;13.50;102068.44;5038194;28;45590;-73
2022/03/20 15:18:03;;;;;;;;;13.00;11.25;;;;;28.36;13.65;102080.09;5055224;28;45485;-74
2022/03/20 15:20:29;;;;;;;;;18.50;10.50;;;;;28.47;13.53;102072.50;5054269;28;45772;-73
2022/03/20 15:22:55;;;;;;;;;14.25;12.00;;;;;28.52;13.96;102080.31;5054507;28;45346;-73
2022/03/20 15:25:20;;;;;;;;;13.50;11.50;;;;;28.42;13.65;102082.25;5054692;28;45635;-74
2022/03/20 15:27:46;;;;;;;;;13.00;13.00;;;;;28.41;12.94;102083.28;5054452;28;46072;-76
2022/03/20 15:30:11;;;;;;;;;14.50;14.00;;;;;28.21;13.74;102065.97;5054254;28;45403;-74
2022/03/20 15:32:38;;;;;;;;;18.75;12.25;;;;;28.15;13.11;102066.56;5054356;28;45489;-73
2022/03/20 15:35:04;;;;;;;;;14.00;11.50;;;;;28.16;13.79;102063.66;5054653;28;45638;-76
2022/03/20 15:37:29;;;;;;;;;6.00;6.00;;;;;28.32;13.40;102078.69;5054695;28;45441;-75
2022/03/20 15:39:54;;;;;;;;;14.75;13.75;;;;;28.33;13.97;102073.00;5054679;28;45400;-76
2022/03/20 15:42:20;;;;;;;;;17.25;15.25;;;;;28.05;13.81;102093.31;5054292;28;45433;-73
2022/03/20 15:44:45;;;;;;;;;15.00;14.00;;;;;27.79;14.46;102079.31;5054216;28;45275;-73
2022/03/20 15:47:10;;;;;;;;;15.00;14.00;;;;;27.62;14.37;102088.34;5054473;28;45803;-74
2022/03/20 15:49:36;;;;;;;;;19.25;15.25;;;;;27.22;14.26;102085.78;5054347;28;46255;-73
2022/03/20 15:52:01;;;;;;;;;15.75;14.25;;;;;26.74;14.53;102070.06;5054348;28;45399;-71
2022/03/20 15:54:27;;;;;;;;;16.75;12.00;;;;;26.84;15.68;102092.09;5054467;28;45439;-73
2022/03/20 15:56:53;;;;;;;;;19.50;16.75;;;;;26.71;15.29;102078.63;5054534;28;45456;-73
2022/03/20 15:59:18;;;;;;;;;13.25;11.25;;;;;26.55;15.44;102084.66;5034099;28;45799;-70
2022/03/20 16:01:44;;;;;;;;;16.25;14.75;;;;;26.47;15.63;102092.75;5054554;28;45321;-72
2022/03/20 16:04:10;;;;;;;;;20.25;16.50;;;;;26.40;15.80;102087.97;5054306;28;45437;-70
2022/03/20 16:06:35;;;;;;;;;18.50;17.00;;;;;26.21;15.74;102072.22;5054395;28;45376;-73
2022/03/20 16:09:01;;;;;;;;;12.50;10.25;;;;;26.12;16.40;102089.56;5053976;28;46030;-72
2022/03/20 16:11:27;;;;;;;;;12.75;10.50;;;;;25.97;16.37;102089.94;5053715;28;46201;-73
2022/03/20 16:13:53;;;;;;;;;20.25;16.25;;;;;25.73;16.76;102088.50;5053527;28;45632;-73
2022/03/20 16:16:18;;;;;;;;;16.00;14.50;;;;;25.33;16.54;102078.25;5054100;28;45350;-75
2022/03/20 16:18:43;;;;;;;;;13.25;13.25;;;;;25.23;16.93;102099.28;5054047;28;45340;-74
2022/03/20 16:21:09;;;;;;;;;20.50;16.75;;;;;25.11;17.14;102100.31;5053609;28;45488;-75
2022/03/20 16:29:01;;;;;;;;;17.75;15.25;;;;;24.14;18.17;102110.22;5053392;28;45421;-71
2022/03/20 16:31:27;;;;;;;;;18.25;16.25;;;;;23.94;18.34;102121.03;5053178;28;45349;-71
2022/03/20 16:33:53;;;;;;;;;15.25;14.00;;;;;23.75;18.38;102106.06;5053731;28;45592;-73
2022/03/20 16:36:19;;;;;;;;;21.75;16.25;;;;;23.62;18.94;102120.84;5053612;28;45521;-73
2022/03/20 16:38:46;;;;;;;;;14.75;12.50;;;;;23.42;19.38;102116.03;5053761;28;46098;-73
2022/03/20 16:41:12;;;;;;;;;22.00;15.50;;;;;23.23;19.44;102122.06;5053535;28;45439;-74
2022/03/20 16:43:39;;;;;;;;;17.00;16.00;;;;;22.85;19.13;102116.81;5053369;28;45409;-71
2022/03/20 16:46:05;;;;;;;;;19.00;15.25;;;;;22.29;19.54;102126.47;5053491;28;45428;-71
2022/03/20 16:48:30;;;;;;;;;15.25;14.50;;;;;21.94;19.52;102135.31;5053150;28;46074;-73
2022/03/20 16:51:03;;;;;;;;;15.00;13.50;;;;;21.61;20.43;102135.84;5053205;28;45634;-73
2022/03/20 16:53:31;;;;;;;;;20.00;17.00;;;;;21.28;21.22;102127.25;5053337;28;45390;-72
2022/03/20 16:55:57;;;;;;;;;14.75;12.75;;;;;21.03;21.62;102130.75;5053099;28;45366;-75
2022/03/20 16:58:22;;;;;;;;;17.75;15.00;;;;;20.73;21.54;102129.13;5053394;28;46175;-73